Time;durP1;ratioP1;P1;durP2;ratioP2;P2;SDS_P1;SDS_P2;PMS_P1;PMS_P2;Temp;Humidity;BMP_temperature;BMP_pressure;BME280_temperature;BME280_humidity;BME280_pressure;Samples;Min_cycle;Max_cycle;Signal;HPM_P1;HPM_P2
2023/04/06 00:01:40;;;;;;;15.30;4.90;;;;;;;12.55;100.00;99693.03;106038;1251;61079;-56
2023/04/06 00:04:10;;;;;;;16.60;5.10;;;;;;;12.53;100.00;99708.20;105871;1256;61649;-55
2023/04/06 00:06:40;;;;;;;17.10;4.90;;;;;;;12.50;100.00;99703.02;105527;1254;73988;-55
2023/04/06 00:09:09;;;;;;;16.10;5.00;;;;;;;12.46;100.00;99691.30;105661;1256;67672;-57
2023/04/06 00:11:38;;;;;;;20.10;5.80;;;;;;;12.44;100.00;99704.36;105548;1254;74383;-55
2023/04/06 00:14:08;;;;;;;13.70;4.90;;;;;;;12.42;100.00;99703.55;105561;1254;61895;-55
2023/04/06 00:16:36;;;;;;;14.10;5.00;;;;;;;12.40;100.00;99694.88;105356;1253;61856;-56
2023/04/06 00:19:05;;;;;;;21.30;4.90;;;;;;;12.41;100.00;99690.96;105874;1254;73612;-57
2023/04/06 00:21:35;;;;;;;18.50;6.00;;;;;;;12.38;100.00;99686.44;105589;1252;66802;-55
2023/04/06 00:24:04;;;;;;;13.20;5.40;;;;;;;12.29;100.00;99662.55;105502;1256;72571;-56
2023/04/06 00:26:32;;;;;;;13.50;6.30;;;;;;;12.16;100.00;99645.90;105553;1255;61060;-55
2023/04/06 00:29:01;;;;;;;14.90;5.30;;;;;;;12.02;100.00;99651.10;105569;1254;61636;-55
2023/04/06 00:31:30;;;;;;;18.20;5.70;;;;;;;11.91;100.00;99668.82;105510;1253;74536;-56
2023/04/06 00:33:59;;;;;;;17.90;5.80;;;;;;;11.83;100.00;99673.30;105374;1257;66796;-55
2023/04/06 00:36:30;;;;;;;16.30;5.50;;;;;;;11.77;100.00;99675.89;105433;1257;74116;-56
2023/04/06 00:38:58;;;;;;;15.80;5.70;;;;;;;11.70;100.00;99681.83;105530;1254;61346;-58
2023/04/06 00:41:27;;;;;;;15.30;5.10;;;;;;;11.64;100.00;99680.66;105201;1258;61262;-58
2023/04/06 00:43:56;;;;;;;13.70;5.40;;;;;;;11.61;100.00;99680.46;105511;1254;74068;-53
2023/04/06 00:46:25;;;;;;;16.60;6.20;;;;;;;11.61;100.00;99684.44;105338;1254;68598;-54
2023/04/06 00:48:56;;;;;;;14.00;5.80;;;;;;;11.61;100.00;99685.64;105508;1253;72906;-54
2023/04/06 00:51:25;;;;;;;16.40;5.70;;;;;;;11.60;100.00;99686.42;105479;1258;61535;-55
2023/04/06 00:54:02;;;;;;;15.60;4.40;;;;;;;11.57;100.00;99689.32;105303;1256;60810;-53
2023/04/06 00:56:32;;;;;;;14.10;5.40;;;;;;;11.54;100.00;99686.46;105450;1256;74423;-55
2023/04/06 00:59:00;;;;;;;12.40;4.70;;;;;;;11.53;100.00;99690.98;105496;1257;68997;-55
2023/04/06 01:01:29;;;;;;;14.90;6.00;;;;;;;11.52;100.00;99688.88;105503;1254;72412;-53
2023/04/06 01:04:02;;;;;;;16.10;5.90;;;;;;;11.53;100.00;99691.94;105348;1253;63733;-55
2023/04/06 01:06:33;;;;;;;18.40;5.70;;;;;;;11.54;100.00;99693.21;105369;1257;61914;-54
2023/04/06 01:09:03;;;;;;;17.30;4.80;;;;;;;11.54;100.00;99704.06;105679;1257;73966;-57
2023/04/06 01:11:32;;;;;;;12.90;5.70;;;;;;;11.54;100.00;99703.65;105519;1256;68581;-54
2023/04/06 01:14:09;;;;;;;13.40;5.00;;;;;;;11.55;100.00;99700.36;105280;1258;73942;-55
2023/04/06 01:16:52;;;;;;;16.80;5.20;;;;;;;11.55;100.00;99704.81;105403;1253;62719;-54
2023/04/06 01:19:24;;;;;;;14.60;4.40;;;;;;;11.55;100.00;99699.31;105241;1254;60862;-54
2023/04/06 01:21:53;;;;;;;17.00;5.50;;;;;;;11.55;100.00;99694.48;105520;1254;75404;-55
2023/04/06 01:24:32;;;;;;;15.80;5.40;;;;;;;11.53;100.00;99682.77;105394;1256;67763;-55
2023/04/06 01:27:10;;;;;;;11.40;4.50;;;;;;;11.51;100.00;99683.13;105322;1254;74283;-54
2023/04/06 01:29:56;;;;;;;11.60;4.30;;;;;;;11.51;100.00;99697.30;105732;1252;63247;-56
2023/04/06 01:32:58;;;;;;;15.00;4.60;;;;;;;11.51;100.00;99724.89;105678;1252;61913;-54
2023/04/06 01:35:52;;;;;;;9.20;5.10;;;;;;;11.51;100.00;99728.40;105381;1256;75386;-55
2023/04/06 01:38:23;;;;;;;14.20;4.70;;;;;;;11.51;100.00;99723.13;105603;1256;68667;-54
2023/04/06 01:40:53;;;;;;;15.80;5.20;;;;;;;11.51;100.00;99716.26;106030;1252;73905;-57
2023/04/06 01:43:23;;;;;;;9.20;4.00;;;;;;;11.50;100.00;99706.58;105531;1257;62191;-55
2023/04/06 01:46:04;;;;;;;13.20;4.70;;;;;;;11.49;100.00;99707.32;105463;1254;61027;-55
2023/04/06 01:48:36;;;;;;;13.10;5.50;;;;;;;11.47;100.00;99714.30;105465;1251;74352;-57
2023/04/06 01:51:15;;;;;;;16.70;5.30;;;;;;;11.46;100.00;99709.55;105263;1257;68405;-55
2023/04/06 01:53:49;;;;;;;10.80;4.30;;;;;;;11.45;100.00;99711.25;105314;1253;74138;-53
2023/04/06 01:56:18;;;;;;;11.10;4.60;;;;;;;11.43;100.00;99723.66;105506;1251;63608;-55
2023/04/06 01:58:56;;;;;;;18.30;4.60;;;;;;;11.41;100.00;99728.81;105335;1258;60758;-55
2023/04/06 02:01:25;;;;;;;12.00;5.00;;;;;;;11.39;100.00;99720.39;105557;1251;74380;-54
2023/04/06 02:03:57;;;;;;;12.80;5.10;;;;;;;11.37;100.00;99718.33;105651;1257;69230;-54
2023/04/06 02:06:26;;;;;;;16.10;4.00;;;;;;;11.36;100.00;99714.82;105690;1254;74268;-56
2023/04/06 02:08:56;;;;;;;13.20;5.10;;;;;;;11.36;100.00;99708.80;105264;1252;61958;-54
2023/04/06 02:11:25;;;;;;;16.40;5.50;;;;;;;11.36;100.00;99702.21;105414;1251;60330;-55
2023/04/06 02:13:56;;;;;;;13.40;5.00;;;;;;;11.36;100.00;99714.89;105572;1253;75368;-53
2023/04/06 02:16:27;;;;;;;14.20;4.50;;;;;;;11.36;100.00;99730.55;105580;1256;67594;-58
2023/04/06 02:18:56;;;;;;;16.80;5.00;;;;;;;11.36;100.00;99736.70;105629;1254;73520;-55
2023/04/06 02:21:25;;;;;;;15.70;4.70;;;;;;;11.36;100.00;99747.17;105591;1256;63396;-55
2023/04/06 02:23:56;;;;;;;14.40;4.00;;;;;;;11.35;100.00;99742.04;105493;1253;61850;-55
2023/04/06 02:26:25;;;;;;;16.20;4.70;;;;;;;11.34;100.00;99738.63;105623;1256;74765;-56
2023/04/06 02:28:57;;;;;;;10.60;4.80;;;;;;;11.33;100.00;99735.67;105455;1256;68720;-55
2023/04/06 02:31:26;;;;;;;16.40;4.10;;;;;;;11.32;100.00;99731.96;105534;1256;74258;-55
2023/04/06 02:33:55;;;;;;;14.70;4.50;;;;;;;11.31;100.00;99729.44;105579;1253;64001;-57
2023/04/06 02:36:24;;;;;;;9.90;4.10;;;;;;;11.31;100.00;99729.23;105434;1256;62006;-55
2023/04/06 02:38:53;;;;;;;14.40;5.20;;;;;;;11.31;100.00;99727.67;105545;1253;75382;-55
2023/04/06 02:41:21;;;;;;;15.30;5.30;;;;;;;11.31;100.00;99723.85;105629;1253;68846;-56
2023/04/06 02:43:52;;;;;;;14.10;4.50;;;;;;;11.31;100.00;99720.09;105949;1253;74138;-56
2023/04/06 02:46:28;;;;;;;13.50;4.40;;;;;;;11.31;100.00;99707.15;105563;1257;63232;-55
2023/04/06 02:49:00;;;;;;;13.80;5.10;;;;;;;11.32;100.00;99691.05;105537;1256;61877;-55
2023/04/06 02:51:29;;;;;;;23.10;5.50;;;;;;;11.31;100.00;99685.20;105628;1252;74344;-55
2023/04/06 02:54:06;;;;;;;10.30;5.20;;;;;;;11.32;100.00;99696.44;105555;1257;67640;-55
2023/04/06 02:56:35;;;;;;;10.70;4.50;;;;;;;11.33;100.00;99708.84;105409;1256;73140;-54
2023/04/06 02:59:03;;;;;;;18.20;5.20;;;;;;;11.32;100.00;99724.58;105480;1252;63351;-53
2023/04/06 03:01:33;;;;;;;13.20;6.00;;;;;;;11.32;100.00;99729.08;105814;1254;60636;-56
2023/04/06 03:04:04;;;;;;;13.50;5.20;;;;;;;11.33;100.00;99733.58;105763;1252;74430;-54
2023/04/06 03:06:32;;;;;;;18.30;5.70;;;;;;;11.32;100.00;99738.18;105462;1257;66212;-54
2023/04/06 03:09:08;;;;;;;15.90;5.00;;;;;;;11.31;100.00;99745.73;105298;1258;73212;-54
2023/04/06 03:11:37;;;;;;;12.40;5.00;;;;;;;11.30;100.00;99745.70;105519;1254;62235;-55
2023/04/06 03:14:06;;;;;;;13.80;4.80;;;;;;;11.28;100.00;99743.20;105556;1256;61075;-54
2023/04/06 03:16:36;;;;;;;11.50;5.10;;;;;;;11.26;100.00;99740.92;105528;1251;74361;-54
2023/04/06 03:19:05;;;;;;;12.30;5.10;;;;;;;11.25;100.00;99742.08;105679;1253;68274;-54
2023/04/06 03:21:35;;;;;;;9.50;4.50;;;;;;;11.24;100.00;99742.08;105986;1251;74237;-55
2023/04/06 03:24:05;;;;;;;14.20;4.50;;;;;;;11.23;100.00;99755.77;105441;1254;63037;-53
2023/04/06 03:26:34;;;;;;;13.60;5.20;;;;;;;11.23;100.00;99757.55;105581;1255;60335;-53
2023/04/06 03:29:05;;;;;;;15.40;6.50;;;;;;;11.21;100.00;99753.91;105493;1253;74373;-53
2023/04/06 03:31:35;;;;;;;11.30;5.60;;;;;;;11.19;100.00;99749.90;105981;1254;67585;-57
2023/04/06 03:34:27;;;;;;;10.80;4.60;;;;;;;11.18;100.00;99751.80;105533;1254;73769;-55
2023/04/06 03:36:59;;;;;;;;;;;;;;;11.20;100.00;99755.80;105978;1253;62240;-57
2023/04/06 03:39:38;;;;;;;21.70;5.90;;;;;;;11.22;100.00;99765.04;105504;1251;60564;-54
2023/04/06 03:42:06;;;;;;;18.50;5.40;;;;;;;11.23;100.00;99771.17;105711;1256;75366;-54
2023/04/06 03:44:41;;;;;;;12.80;6.00;;;;;;;11.25;100.00;99769.50;105319;1257;68380;-56
2023/04/06 03:47:09;;;;;;;17.00;5.20;;;;;;;11.27;100.00;99768.25;105787;1256;74534;-55
2023/04/06 03:49:39;;;;;;;17.20;5.40;;;;;;;11.27;100.00;99779.13;105501;1251;63514;-54
2023/04/06 03:52:10;;;;;;;14.70;5.40;;;;;;;11.28;100.00;99778.67;105484;1251;61922;-54
2023/04/06 03:54:38;;;;;;;14.10;5.90;;;;;;;11.28;100.00;99776.95;105586;1252;75842;-55
2023/04/06 03:57:07;;;;;;;13.80;5.30;;;;;;;11.29;100.00;99783.06;105715;1256;67218;-55
2023/04/06 03:59:39;;;;;;;15.30;5.70;;;;;;;11.30;100.00;99787.29;105535;1256;74484;-55
2023/04/06 04:02:08;;;;;;;16.70;6.20;;;;;;;11.32;100.00;99788.96;105657;1256;62359;-56
2023/04/06 04:04:37;;;;;;;15.70;5.90;;;;;;;11.32;100.00;99786.69;105687;1251;60825;-57
2023/04/06 04:07:07;;;;;;;18.90;6.10;;;;;;;11.32;100.00;99783.71;105905;1251;75292;-57
2023/04/06 04:09:37;;;;;;;18.90;5.80;;;;;;;11.33;100.00;99784.64;105522;1254;67671;-55
2023/04/06 04:12:06;;;;;;;19.30;5.10;;;;;;;11.34;100.00;99787.17;105598;1253;74178;-55
2023/04/06 04:14:40;;;;;;;15.00;5.30;;;;;;;11.35;100.00;99796.43;105650;1251;63663;-55
2023/04/06 04:17:09;;;;;;;16.10;5.30;;;;;;;11.35;100.00;99797.40;105984;1256;61853;-57
2023/04/06 04:19:40;;;;;;;17.60;5.40;;;;;;;11.37;100.00;99794.44;105568;1251;75428;-55
2023/04/06 04:22:09;;;;;;;15.80;5.90;;;;;;;11.39;100.00;99783.36;105593;1253;67866;-55
2023/04/06 04:24:43;;;;;;;15.90;5.70;;;;;;;11.43;100.00;99779.88;105390;1257;74213;-56
2023/04/06 04:27:12;;;;;;;15.30;4.50;;;;;;;11.46;100.00;99803.80;105676;1252;63507;-56
2023/04/06 04:29:49;;;;;;;26.10;6.20;;;;;;;11.48;100.00;99796.21;105886;1251;60701;-56
2023/04/06 04:32:20;;;;;;;;;;;;;;;11.50;100.00;99791.67;105578;1251;75968;-55
2023/04/06 04:34:50;;;;;;;11.80;5.00;;;;;;;11.53;100.00;99790.67;105683;1256;69331;-57
2023/04/06 04:37:31;;;;;;;13.30;5.20;;;;;;;11.53;100.00;99779.99;105567;1254;72717;-55
2023/04/06 04:40:00;;;;;;;11.50;4.30;;;;;;;11.57;100.00;99779.83;105668;1253;63453;-54
2023/04/06 04:42:31;;;;;;;13.40;5.40;;;;;;;11.62;100.00;99750.95;105613;1253;61711;-57
2023/04/06 04:45:00;;;;;;;14.30;5.60;;;;;;;11.66;100.00;99744.23;105492;1253;75643;-54
2023/04/06 04:47:38;;;;;;;14.00;5.10;;;;;;;11.72;100.00;99744.24;105414;1257;68572;-57
2023/04/06 04:50:13;;;;;;;18.10;5.20;;;;;;;11.78;100.00;99772.39;105228;1257;73204;-56
2023/04/06 04:52:44;;;;;;;24.50;6.50;;;;;;;11.85;100.00;99799.41;105350;1252;61158;-55
2023/04/06 04:55:25;;;;;;;12.40;5.50;;;;;;;11.91;100.00;99809.50;105179;1253;61186;-57
2023/04/06 04:57:56;;;;;;;16.80;6.10;;;;;;;11.94;100.00;99813.08;105349;1253;75401;-56
2023/04/06 05:00:44;;;;;;;22.20;6.80;;;;;;;11.96;100.00;99807.48;105502;1252;67886;-53
2023/04/06 05:03:20;;;;;;;21.60;5.90;;;;;;;11.97;100.00;99792.20;105466;1253;73693;-54
2023/04/06 05:05:55;;;;;;;14.40;5.50;;;;;;;12.00;100.00;99790.88;105546;1253;62840;-54
2023/04/06 05:08:25;;;;;;;12.50;6.00;;;;;;;12.03;100.00;99793.04;105422;1253;61837;-54
2023/04/06 05:10:58;;;;;;;15.00;5.40;;;;;;;12.07;100.00;99791.02;105432;1253;74854;-54
2023/04/06 05:13:30;;;;;;;19.10;5.90;;;;;;;12.11;100.00;99792.39;105199;1253;68435;-57
2023/04/06 05:15:59;;;;;;;15.90;5.80;;;;;;;12.15;100.00;99789.16;105507;1257;75042;-53
2023/04/06 05:18:30;;;;;;;;;;;;;;;12.22;100.00;99787.41;105409;1257;61709;-53
2023/04/06 05:20:59;;;;;;;16.60;5.80;;;;;;;12.30;100.00;99778.88;105473;1253;61449;-54
2023/04/06 05:23:48;;;;;;;14.80;5.10;;;;;;;12.36;100.00;99776.20;105419;1252;75419;-54
2023/04/06 05:26:17;;;;;;;13.50;5.90;;;;;;;12.44;100.00;99772.75;105778;1256;68840;-57
2023/04/06 05:28:46;;;;;;;27.50;7.20;;;;;;;12.52;100.00;99775.05;105498;1253;73963;-55
2023/04/06 05:31:19;;;;;;;15.80;6.90;;;;;;;12.59;100.00;99779.45;105446;1251;61825;-55
2023/04/06 05:33:50;;;;;;;19.30;6.70;;;;;;;12.66;100.00;99781.84;105586;1253;62042;-54
2023/04/06 05:36:30;;;;;;;16.40;5.80;;;;;;;12.73;100.00;99785.46;105489;1253;75712;-54
2023/04/06 05:39:01;;;;;;;17.90;5.90;;;;;;;12.79;100.00;99786.40;105692;1253;67457;-58
2023/04/06 05:41:35;;;;;;;15.40;5.80;;;;;;;12.82;100.00;99788.69;105383;1252;73196;-55
2023/04/06 05:44:04;;;;;;;16.40;6.30;;;;;;;12.83;100.00;99786.78;105639;1251;62253;-54
2023/04/06 05:46:33;;;;;;;14.80;6.10;;;;;;;12.85;100.00;99791.36;105643;1251;60850;-56
2023/04/06 05:49:02;;;;;;;14.20;5.00;;;;;;;12.88;100.00;99796.61;105469;1253;75826;-56
2023/04/06 05:51:35;;;;;;;20.60;7.20;;;;;;;12.93;100.00;99800.26;105467;1253;68653;-55
2023/04/06 05:54:04;;;;;;;14.50;7.00;;;;;;;13.00;100.00;99796.56;105636;1251;73582;-55
2023/04/06 05:56:35;;;;;;;18.70;5.40;;;;;;;13.05;100.00;99802.67;105612;1252;61896;-54
2023/04/06 05:59:03;;;;;;;16.40;5.40;;;;;;;13.11;100.00;99809.21;105460;1253;61069;-57
2023/04/06 06:01:34;;;;;;;16.90;5.50;;;;;;;13.13;100.00;99817.58;105547;1253;75443;-56
2023/04/06 06:04:04;;;;;;;21.50;5.80;;;;;;;13.12;100.00;99824.66;105696;1253;67689;-53
2023/04/06 06:06:36;;;;;;;17.70;5.10;;;;;;;13.13;100.00;99817.81;105329;1257;72617;-55
2023/04/06 06:09:17;;;;;;;14.20;5.60;;;;;;;13.19;100.00;99816.63;105512;1251;63408;-54
2023/04/06 06:11:57;;;;;;;20.00;6.60;;;;;;;13.32;100.00;99822.73;105518;1253;60876;-54
2023/04/06 06:14:28;;;;;;;18.40;6.50;;;;;;;13.45;100.00;99818.89;105692;1255;75440;-53
2023/04/06 06:16:57;;;;;;;13.00;5.90;;;;;;;13.57;100.00;99820.09;106223;1253;67363;-55
2023/04/06 06:19:27;;;;;;;20.10;6.70;;;;;;;13.74;100.00;99824.50;105809;1253;72954;-57
2023/04/06 06:22:02;;;;;;;15.60;6.10;;;;;;;13.92;100.00;99820.17;105607;1251;61591;-55
2023/04/06 06:24:31;;;;;;;16.60;6.00;;;;;;;14.11;100.00;99821.60;105761;1253;60555;-55
2023/04/06 06:27:00;;;;;;;15.30;5.70;;;;;;;14.29;100.00;99823.36;105985;1251;75464;-58
2023/04/06 06:29:33;;;;;;;15.30;6.20;;;;;;;14.48;100.00;99821.27;105966;1256;68353;-56
2023/04/06 06:32:02;;;;;;;20.30;6.60;;;;;;;14.67;100.00;99821.05;105709;1256;72657;-54
2023/04/06 06:34:31;;;;;;;18.40;6.00;;;;;;;14.88;100.00;99825.42;105970;1255;61964;-54
2023/04/06 06:37:02;;;;;;;26.80;8.20;;;;;;;14.97;100.00;99822.80;105824;1251;61544;-55
2023/04/06 06:39:32;;;;;;;23.30;6.40;;;;;;;14.98;100.00;99820.04;105696;1252;74448;-56
2023/04/06 06:42:01;;;;;;;20.30;6.80;;;;;;;15.01;100.00;99824.89;105651;1253;67501;-55
2023/04/06 06:44:58;;;;;;;17.60;6.50;;;;;;;15.04;100.00;99826.47;106199;1251;72610;-58
2023/04/06 06:47:27;;;;;;;25.60;7.10;;;;;;;15.06;100.00;99824.45;105695;1256;60872;-56
2023/04/06 06:49:57;;;;;;;14.20;5.80;;;;;;;15.15;100.00;99821.46;105943;1251;61652;-54
2023/04/06 06:52:25;;;;;;;15.70;5.80;;;;;;;15.28;100.00;99825.85;105876;1253;75441;-59
2023/04/06 06:54:56;;;;;;;17.80;5.80;;;;;;;15.40;100.00;99831.70;105905;1251;68175;-57
2023/04/06 06:57:25;;;;;;;18.90;7.00;;;;;;;15.43;100.00;99836.86;106017;1255;74706;-54
2023/04/06 06:59:55;;;;;;;14.10;6.20;;;;;;;15.41;100.00;99837.50;105562;1256;62227;-54
2023/04/06 07:02:24;;;;;;;20.00;5.80;;;;;;;15.38;100.00;99836.45;105820;1251;61759;-59
2023/04/06 07:04:52;;;;;;;17.00;6.50;;;;;;;15.37;100.00;99839.38;105793;1253;74743;-57
2023/04/06 07:07:22;;;;;;;15.00;5.10;;;;;;;15.41;100.00;99837.98;105861;1254;67321;-55
2023/04/06 07:09:50;;;;;;;13.50;5.50;;;;;;;15.43;100.00;99833.95;105763;1253;74263;-56
2023/04/06 07:12:19;;;;;;;16.60;5.60;;;;;;;15.42;100.00;99826.65;105815;1255;61766;-56
2023/04/06 07:14:48;;;;;;;13.10;5.20;;;;;;;15.44;100.00;99828.60;105647;1253;62275;-55
2023/04/06 07:17:16;;;;;;;14.10;5.90;;;;;;;15.43;100.00;99831.33;105883;1253;75400;-56
2023/04/06 07:19:45;;;;;;;15.50;5.40;;;;;;;15.47;100.00;99831.84;105869;1256;67668;-55
2023/04/06 07:22:16;;;;;;;13.70;5.70;;;;;;;15.57;100.00;99833.46;106137;1253;74212;-59
2023/04/06 07:24:44;;;;;;;11.80;5.30;;;;;;;15.68;100.00;99843.88;105762;1254;62114;-56
2023/04/06 07:27:16;;;;;;;15.60;5.40;;;;;;;15.67;100.00;99853.95;105809;1252;60749;-56
2023/04/06 07:29:45;;;;;;;15.30;5.30;;;;;;;15.58;100.00;99864.80;105790;1256;75676;-55
2023/04/06 07:32:14;;;;;;;14.10;6.70;;;;;;;15.47;100.00;99860.45;105807;1253;67328;-56
2023/04/06 07:34:45;;;;;;;11.40;6.30;;;;;;;15.33;100.00;99862.86;105699;1257;73979;-56
2023/04/06 07:37:13;;;;;;;12.50;5.50;;;;;;;15.19;100.00;99868.45;105766;1257;62293;-55
2023/04/06 07:39:42;;;;;;;19.80;7.10;;;;;;;15.05;100.00;99876.98;105732;1251;61907;-55
2023/04/06 07:42:12;;;;;;;14.40;6.00;;;;;;;14.95;100.00;99881.21;105986;1253;75429;-58
2023/04/06 07:44:41;;;;;;;16.50;6.10;;;;;;;14.88;100.00;99873.55;105781;1257;69232;-56
2023/04/06 07:47:10;;;;;;;16.60;6.30;;;;;;;14.87;100.00;99875.27;105872;1257;74146;-57
2023/04/06 07:49:39;;;;;;;11.40;5.30;;;;;;;14.89;100.00;99875.95;105971;1253;63557;-57
2023/04/06 07:52:07;;;;;;;17.00;6.10;;;;;;;14.93;100.00;99877.27;105845;1252;60819;-55
2023/04/06 07:54:42;;;;;;;16.10;5.90;;;;;;;14.98;100.00;99869.54;105895;1256;74478;-56
2023/04/06 07:57:11;;;;;;;19.00;5.90;;;;;;;14.99;100.00;99870.62;105900;1253;66810;-54
2023/04/06 07:59:47;;;;;;;14.70;6.50;;;;;;;15.05;100.00;99862.08;105691;1264;74157;-55
2023/04/06 08:02:16;;;;;;;16.60;6.20;;;;;;;15.15;100.00;99863.67;106161;1253;60893;-56
2023/04/06 08:04:47;;;;;;;15.70;6.00;;;;;;;15.19;100.00;99871.58;105765;1253;61022;-54
2023/04/06 08:07:16;;;;;;;12.90;5.70;;;;;;;15.22;100.00;99877.14;105810;1256;75439;-57
2023/04/06 08:09:47;;;;;;;15.70;5.10;;;;;;;15.23;100.00;99882.24;105718;1256;68597;-58
2023/04/06 08:12:16;;;;;;;13.20;5.40;;;;;;;15.20;100.00;99885.06;105927;1256;72441;-56
2023/04/06 08:14:47;;;;;;;16.30;5.60;;;;;;;15.13;100.00;99894.56;105625;1253;61381;-56
2023/04/06 08:17:17;;;;;;;12.00;4.80;;;;;;;15.03;100.00;99897.02;105857;1253;60817;-56
2023/04/06 08:19:46;;;;;;;12.10;4.40;;;;;;;14.91;100.00;99905.12;105826;1256;75436;-57
2023/04/06 08:22:18;;;;;;;15.20;5.60;;;;;;;14.63;100.00;99900.30;105666;1253;68736;-55
2023/04/06 08:24:46;;;;;;;10.70;4.40;;;;;;;14.30;100.00;99904.59;105882;1253;73200;-56
2023/04/06 08:27:15;;;;;;;9.90;4.60;;;;;;;14.06;100.00;99910.13;105785;1255;60608;-54
2023/04/06 08:29:44;;;;;;;17.50;5.60;;;;;;;13.93;100.00;99911.23;105867;1253;61904;-58
2023/04/06 08:32:12;;;;;;;15.90;5.70;;;;;;;13.87;100.00;99894.47;105940;1251;74361;-58
2023/04/06 08:34:41;;;;;;;18.80;6.10;;;;;;;13.91;100.00;99891.95;105892;1253;67520;-55
2023/04/06 08:37:11;;;;;;;23.00;6.40;;;;;;;13.99;100.00;99900.73;105747;1256;74237;-55
2023/04/06 08:39:40;;;;;;;16.70;5.70;;;;;;;14.13;100.00;99911.36;106268;1252;61885;-57
2023/04/06 08:42:15;;;;;;;11.30;4.00;;;;;;;14.24;100.00;99919.13;105533;1254;61711;-58
2023/04/06 08:44:45;;;;;;;12.60;4.10;;;;;;;14.24;100.00;99918.08;105717;1254;74438;-55
2023/04/06 08:47:14;;;;;;;11.10;4.80;;;;;;;14.21;100.00;99916.32;105832;1252;68330;-56
2023/04/06 08:49:42;;;;;;;14.40;5.60;;;;;;;14.19;100.00;99922.27;105659;1256;73338;-55
2023/04/06 08:52:11;;;;;;;8.70;5.00;;;;;;;14.21;100.00;99928.42;105766;1253;61885;-58
2023/04/06 08:54:41;;;;;;;12.90;4.50;;;;;;;14.26;100.00;99930.89;105872;1256;60626;-56
2023/04/06 08:57:11;;;;;;;9.50;4.20;;;;;;;14.33;100.00;99935.30;105871;1253;74705;-57
2023/04/06 08:59:42;;;;;;;14.50;5.10;;;;;;;14.40;100.00;99937.70;105461;1256;68304;-55
2023/04/06 09:02:16;;;;;;;12.40;5.30;;;;;;;14.46;100.00;99934.55;105811;1255;74336;-56
2023/04/06 09:04:47;;;;;;;13.50;6.20;;;;;;;14.54;100.00;99935.66;105682;1253;62289;-57
2023/04/06 09:07:16;;;;;;;13.90;5.90;;;;;;;14.63;100.00;99929.57;105772;1255;60734;-58
2023/04/06 09:09:47;;;;;;;13.30;5.60;;;;;;;14.71;100.00;99935.41;105492;1255;75554;-58
2023/04/06 09:12:26;;;;;;;15.10;5.70;;;;;;;14.74;100.00;99938.42;105758;1253;68481;-57
2023/04/06 09:14:55;;;;;;;8.90;5.50;;;;;;;14.68;100.00;99940.58;106009;1256;73176;-56
2023/04/06 09:17:30;;;;;;;9.20;5.80;;;;;;;14.62;100.00;99943.40;106247;1253;350960;-59
2023/04/06 09:20:02;;;;;;;9.30;5.90;;;;;;;14.62;100.00;99943.28;105628;1256;60843;-56
2023/04/06 09:22:39;;;;;;;9.90;6.50;;;;;;;14.56;100.00;99953.56;105820;1252;76062;-56
2023/04/06 09:25:08;;;;;;;11.20;6.60;;;;;;;14.47;100.00;99949.27;105807;1253;68428;-58
2023/04/06 09:27:38;;;;;;;11.70;6.80;;;;;;;14.40;100.00;99953.19;105714;1252;73830;-57
2023/04/06 09:30:09;;;;;;;8.80;5.70;;;;;;;14.34;100.00;99954.28;105750;1255;63664;-56
2023/04/06 09:32:52;;;;;;;8.40;5.10;;;;;;;14.22;100.00;99957.93;105682;1253;61070;-57
2023/04/06 09:35:21;;;;;;;9.30;5.60;;;;;;;14.07;100.00;99965.26;106200;1253;75402;-57
2023/04/06 09:37:51;;;;;;;10.30;5.20;;;;;;;13.93;100.00;99978.15;105652;1253;68935;-55
2023/04/06 09:40:21;;;;;;;8.40;5.20;;;;;;;13.80;100.00;99980.52;105665;1251;73969;-56
2023/04/06 09:42:54;;;;;;;8.90;5.50;;;;;;;13.66;100.00;99978.02;105771;1254;63739;-59
2023/04/06 09:45:22;;;;;;;8.80;5.50;;;;;;;13.54;100.00;99990.73;105600;1256;61888;-58
2023/04/06 09:47:53;;;;;;;8.70;5.90;;;;;;;13.51;100.00;100001.40;105706;1251;75314;-57
2023/04/06 09:50:23;;;;;;;9.50;6.00;;;;;;;13.53;100.00;100005.25;105772;1254;68424;-56
2023/04/06 09:52:54;;;;;;;8.30;4.50;;;;;;;13.60;100.00;100006.58;105973;1259;74194;-61
2023/04/06 09:55:25;;;;;;;7.30;3.60;;;;;;;13.66;100.00;100002.36;105807;1259;63512;-62
2023/04/06 09:58:08;;;;;;;8.80;4.00;;;;;;;13.75;100.00;99998.85;105688;1253;61031;-58
2023/04/06 10:01:03;;;;;;;8.40;5.00;;;;;;;13.87;100.00;100000.61;106098;1256;76064;-61
2023/04/06 10:03:51;;;;;;;6.40;4.30;;;;;;;13.92;100.00;100016.52;105850;1253;68760;-58
2023/04/06 10:06:22;;;;;;;9.30;6.30;;;;;;;13.94;100.00;100025.52;105695;1255;73988;-62
2023/04/06 10:08:53;;;;;;;7.20;5.30;;;;;;;13.84;100.00;100025.61;105866;1253;63496;-56
2023/04/06 10:11:27;;;;;;;7.60;4.70;;;;;;;13.76;100.00;100020.58;105480;1252;61335;-56
2023/04/06 10:13:56;;;;;;;5.90;4.80;;;;;;;13.72;100.00;100024.21;106129;1255;75576;-61
2023/04/06 10:16:24;;;;;;;6.70;4.90;;;;;;;13.71;100.00;100024.41;105512;1252;69250;-56
2023/04/06 10:19:00;;;;;;;5.40;4.30;;;;;;;13.76;100.00;100037.14;105994;1253;74133;-57
2023/04/06 10:21:28;;;;;;;5.50;3.80;;;;;;;13.85;100.00;100039.27;105711;1252;62799;-58
2023/04/06 10:24:01;;;;;;;4.70;3.80;;;;;;;13.94;100.00;100030.06;105916;1251;60065;-59
2023/04/06 10:26:31;;;;;;;4.40;3.10;;;;;;;14.09;100.00;100033.85;105697;1255;74314;-57
2023/04/06 10:29:03;;;;;;;3.50;2.50;;;;;;;14.22;100.00;100039.89;105902;1253;68681;-57
2023/04/06 10:31:32;;;;;;;3.60;2.10;;;;;;;14.35;100.00;100037.38;105849;1254;74511;-56
2023/04/06 10:34:02;;;;;;;3.10;1.80;;;;;;;14.46;100.00;100032.63;105777;1251;63859;-61
2023/04/06 10:36:33;;;;;;;3.00;1.90;;;;;;;14.55;100.00;100028.76;105662;1254;61010;-56
2023/04/06 10:39:03;;;;;;;4.70;2.20;;;;;;;14.69;100.00;100029.19;105750;1253;75413;-55
2023/04/06 10:41:36;;;;;;;3.30;2.30;;;;;;;14.87;100.00;100030.94;105329;1254;69311;-57
2023/04/06 10:44:05;;;;;;;2.10;1.30;;;;;;;15.03;100.00;100027.02;105463;1252;73752;-57
2023/04/06 10:46:34;;;;;;;3.20;1.40;;;;;;;15.13;100.00;100026.19;105596;1256;61999;-59
2023/04/06 10:49:14;;;;;;;2.80;1.60;;;;;;;15.19;100.00;100015.50;105721;1253;62019;-58
2023/04/06 10:51:43;;;;;;;2.50;1.40;;;;;;;15.27;100.00;100012.27;105668;1258;75331;-60
2023/04/06 10:54:13;;;;;;;3.20;1.10;;;;;;;15.43;100.00;100018.59;105423;1255;67448;-59
2023/04/06 10:56:42;;;;;;;2.90;1.40;;;;;;;15.63;100.00;100016.69;105458;1253;74159;-56
2023/04/06 10:59:11;;;;;;;3.10;1.40;;;;;;;15.84;100.00;100008.76;105488;1255;60803;-61
2023/04/06 11:01:39;;;;;;;2.40;1.40;;;;;;;16.05;100.00;100011.77;105484;1255;60336;-58
2023/04/06 11:04:09;;;;;;;2.40;1.40;;;;;;;16.25;100.00;100012.92;106025;1253;74382;-58
2023/04/06 11:06:41;;;;;;;4.30;1.60;;;;;;;16.38;100.00;100008.02;105499;1256;67537;-58
2023/04/06 11:09:09;;;;;;;2.20;1.30;;;;;;;16.44;100.00;100006.38;105850;1256;74163;-59
2023/04/06 11:11:39;;;;;;;3.10;1.80;;;;;;;16.49;100.00;100006.02;105494;1256;61661;-59
2023/04/06 11:14:11;;;;;;;2.30;1.40;;;;;;;16.55;100.00;100005.36;105421;1251;61307;-59
2023/04/06 11:16:39;;;;;;;3.20;1.70;;;;;;;16.58;100.00;100005.02;105580;1252;75437;-59
2023/04/06 11:19:09;;;;;;;2.80;1.40;;;;;;;16.58;100.00;100004.69;105586;1254;68638;-59
2023/04/06 11:21:48;;;;;;;3.00;1.70;;;;;;;16.52;100.00;100002.51;105580;1253;73423;-59
2023/04/06 11:24:19;;;;;;;3.00;1.70;;;;;;;16.51;100.00;100002.44;105625;1253;63566;-59
2023/04/06 11:26:50;;;;;;;3.80;2.20;;;;;;;16.52;100.00;100007.24;105606;1253;61603;-59
2023/04/06 11:29:20;;;;;;;3.30;1.90;;;;;;;16.48;100.00;100009.68;105615;1253;75322;-58